Temp: 13.9°C   Baro: 1027.3mb
  Wind: 0.0mph   Dir: W (281°)
  Rain: 0.0mm (0.0mm/hr)
  Solar: 0W/m2  Hum: 85%
 
Bath Spa Weather Station Historical Data
Daily Summary for June 11, 2021 Units:  English    Metric   Both
Daily Weekly Monthly Yearly Custom
  High: Low: Average:
Temperature: 70.2 °F 58.6 °F 63.5 °F
Dew Point: 61.4 °F 55.6 °F 59.4 °F
Humidity: 91% 70.2% 84%
Wind Speed: 12.6mph 0mph 5.3mph
Wind Gust: 21mph - -
Wind- - West
Pressure: 30.18 in 30.11 in -
Precipitation: 0.00 in    
Historical Graphs
 
 
Tabular Data for June 11, 2021
Time Temperature Dew Point Pressure Wind Wind Speed Wind Gust Humidity Rainfall Rate (Hourly) solar
00:04 62.4 °F 60.6 °F 30.12 in WSW 2 mph 4 mph 91% 0.00 in 0 W/m2
00:09 62.4 °F 60.6 °F 30.12 in Calm   3 mph 91% 0.00 in 0 W/m2
00:14 62.3 °F 60.5 °F 30.12 in WSW 0.9 mph 4 mph 91% 0.00 in 0 W/m2
00:19 62.2 °F 60.4 °F 30.12 in WSW 2.1 mph 4 mph 91% 0.00 in 0 W/m2
00:24 62.2 °F 60.4 °F 30.12 in WSW 0.9 mph 4 mph 91% 0.00 in 0 W/m2
00:29 62.2 °F 60.4 °F 30.12 in Calm   4 mph 91% 0.00 in 0 W/m2
00:34 62.2 °F 60.4 °F 30.12 in WSW 0.8 mph 4 mph 91% 0.00 in 0 W/m2
00:39 62.2 °F 60.4 °F 30.12 in Calm   3 mph 91% 0.00 in 0 W/m2
00:44 62.2 °F 60.4 °F 30.12 in WSW 0.4 mph 3 mph 91% 0.00 in 0 W/m2
00:49 62.4 °F 60.6 °F 30.12 in WSW 1.8 mph 5 mph 91% 0.00 in 0 W/m2
00:54 62.4 °F 60.6 °F 30.12 in WSW 2 mph 4 mph 91% 0.00 in 0 W/m2
00:59 62.4 °F 60.6 °F 30.12 in WSW 1.2 mph 3 mph 91% 0.00 in 0 W/m2
01:04 62.4 °F 60.6 °F 30.12 in WSW 1.6 mph 4 mph 91% 0.00 in 0 W/m2
01:09 62.4 °F 60.6 °F 30.12 in WSW 1.6 mph 4 mph 91% 0.00 in 0 W/m2
01:14 62.4 °F 60.6 °F 30.12 in WSW 2.2 mph 6 mph 91% 0.00 in 0 W/m2
01:19 62.4 °F 60.6 °F 30.12 in WSW 0.9 mph 5 mph 91% 0.00 in 0 W/m2
01:24 62.4 °F 60.6 °F 30.12 in WSW 1.2 mph 5 mph 91% 0.00 in 0 W/m2
01:29 62.4 °F 60.6 °F 30.12 in WSW 2.1 mph 6 mph 91% 0.00 in 0 W/m2
01:34 62.4 °F 60.6 °F 30.12 in WSW 1.6 mph 4 mph 91% 0.00 in 0 W/m2
01:39 62.5 °F 60.7 °F 30.12 in WSW 0.4 mph 3 mph 91% 0.00 in 0 W/m2
01:44 62.5 °F 60.7 °F 30.12 in WSW 1 mph 4 mph 91% 0.00 in 0 W/m2
01:49 62.5 °F 60.7 °F 30.12 in WSW 1.2 mph 3 mph 91% 0.00 in 0 W/m2
01:54 62.4 °F 60.6 °F 30.12 in WSW 0.4 mph 4 mph 91% 0.00 in 0 W/m2
01:59 62.6 °F 60.8 °F 30.12 in WSW 1 mph 4 mph 91% 0.00 in 0 W/m2
02:04 62.7 °F 60.8 °F 30.12 in WSW 0.2 mph 4 mph 91% 0.00 in 0 W/m2
02:09 62.6 °F 60.8 °F 30.12 in WSW 0.4 mph 3 mph 91% 0.00 in 0 W/m2
02:14 62.6 °F 60.8 °F 30.12 in WSW 1.2 mph 4 mph 91% 0.00 in 0 W/m2
02:19 62.6 °F 60.8 °F 30.12 in WSW 1 mph 4 mph 91% 0.00 in 0 W/m2
02:24 62.6 °F 60.8 °F 30.12 in WSW 1 mph 4 mph 91% 0.00 in 0 W/m2
02:29 62.7 °F 60.9 °F 30.12 in Calm   1 mph 91% 0.00 in 0 W/m2
02:34 62.7 °F 60.9 °F 30.12 in Calm   1 mph 91% 0.00 in 0 W/m2
02:39 62.6 °F 60.8 °F 30.11 in WSW 0.2 mph 1 mph 91% 0.00 in 0 W/m2
02:44 62.6 °F 60.8 °F 30.11 in Calm     91% 0.00 in 0 W/m2
02:49 62.4 °F 60.6 °F 30.11 in Calm     91% 0.00 in 0 W/m2
02:54 62.5 °F 60.7 °F 30.11 in Calm     91% 0.00 in 0 W/m2
02:59 62.4 °F 60.6 °F 30.11 in WSW 0.4 mph 2 mph 91% 0.00 in 0 W/m2
03:04 62.5 °F 60.7 °F 30.11 in WSW 0.2 mph 3 mph 91% 0.00 in 0 W/m2
03:09 62.4 °F 60.6 °F 30.11 in WSW 1.2 mph 4 mph 91% 0.00 in 0 W/m2
03:14 62.4 °F 60.6 °F 30.11 in WSW 2.1 mph 5 mph 91% 0.00 in 0 W/m2
03:19 62.4 °F 60.6 °F 30.12 in WSW 3.1 mph 5 mph 91% 0.00 in 0 W/m2
03:24 62.4 °F 60.6 °F 30.11 in WSW 0.5 mph 4 mph 91% 0.00 in 0 W/m2
03:29 62.4 °F 60.6 °F 30.11 in WSW 2.2 mph 5 mph 91% 0.00 in 0 W/m2
03:34 62.2 °F 60.4 °F 30.11 in WSW 1.6 mph 4 mph 91% 0.00 in 0 W/m2
03:39 62.2 °F 60.4 °F 30.11 in WSW 1.7 mph 4 mph 91% 0.00 in 0 W/m2
03:44 62.2 °F 60.4 °F 30.11 in WSW 1.7 mph 4 mph 91% 0.00 in 0 W/m2
03:49 62.2 °F 60.4 °F 30.11 in WSW 0.8 mph 3 mph 91% 0.00 in 0 W/m2
03:54 62.2 °F 60.4 °F 30.11 in WSW 1 mph 3 mph 91% 0.00 in 0 W/m2
03:59 62.2 °F 60.4 °F 30.11 in WSW 1 mph 3 mph 91% 0.00 in 0 W/m2
04:04 62.2 °F 60.4 °F 30.11 in WSW 2 mph 5 mph 91% 0.00 in 0 W/m2
04:09 62.2 °F 60.4 °F 30.11 in WSW 2.7 mph 5 mph 91% 0.00 in 0 W/m2
04:14 62.2 °F 60.4 °F 30.11 in WSW 3 mph 5 mph 91% 0.00 in 0 W/m2
04:19 62.2 °F 60.4 °F 30.11 in WSW 3.6 mph 10 mph 91% 0.00 in 0 W/m2
04:24 62.2 °F 60.4 °F 30.11 in WSW 5.6 mph 10 mph 91% 0.00 in 0 W/m2
04:29 62.1 °F 60.3 °F 30.11 in WSW 3.2 mph 8 mph 91% 0.00 in 0 W/m2
04:34 62.1 °F 60.3 °F 30.11 in WSW 3.5 mph 7 mph 91% 0.00 in 0 W/m2
04:39 62.1 °F 60.3 °F 30.11 in WSW 1.4 mph 7 mph 91% 0.00 in 0 W/m2
04:44 62.1 °F 60.3 °F 30.11 in WSW 0.5 mph 2 mph 91% 0.00 in 0 W/m2
04:49 62.1 °F 60 °F 30.11 in WSW 1.6 mph 4 mph 90.2% 0.00 in 0 W/m2
04:54 62.1 °F 59.9 °F 30.11 in WSW 0.9 mph 3 mph 90% 0.00 in 0 W/m2
04:59 61.9 °F 59.7 °F 30.11 in WSW 3.6 mph 6 mph 90% 0.00 in 0 W/m2
05:04 61.9 °F 59.7 °F 30.11 in WSW 1 mph 4 mph 90% 0.00 in 0 W/m2
05:09 61.9 °F 59.7 °F 30.11 in WSW 2.5 mph 7 mph 90% 0.00 in 5 W/m2
05:14 61.9 °F 59.7 °F 30.11 in WSW 0.8 mph 4 mph 90% 0.00 in 7 W/m2
05:19 61.8 °F 59.6 °F 30.11 in WSW 2.3 mph 4 mph 90% 0.00 in 7 W/m2
05:24 61.7 °F 59.5 °F 30.11 in WSW 2.5 mph 5 mph 90% 0.00 in 11 W/m2
05:29 61.6 °F 59.4 °F 30.11 in WSW 2.5 mph 5 mph 90% 0.00 in 12 W/m2
05:34 61.6 °F 59.3 °F 30.11 in WSW 1.3 mph 5 mph 89% 0.00 in 14 W/m2
05:39 61.7 °F 59.4 °F 30.11 in WSW 2.9 mph 6 mph 89% 0.00 in 19 W/m2
05:44 61.8 °F 59.4 °F 30.11 in WSW 2.7 mph 7 mph 89% 0.00 in 21 W/m2
05:49 61.9 °F 59.5 °F 30.11 in WSW 2.9 mph 8 mph 89% 0.00 in 21 W/m2
05:54 61.9 °F 59.5 °F 30.12 in WSW 2.6 mph 7 mph 89% 0.00 in 19 W/m2
05:59 62 °F 59.6 °F 30.12 in WSW 3.8 mph 8 mph 89% 0.00 in 21 W/m2
06:04 62.1 °F 59.5 °F 30.12 in West 3.7 mph 8 mph 88.2% 0.00 in 33 W/m2
06:09 62.1 °F 59.4 °F 30.12 in WSW 4.1 mph 11 mph 88% 0.00 in 37 W/m2
06:14 62.1 °F 59.4 °F 30.12 in WSW 3.8 mph 7 mph 88% 0.00 in 54 W/m2
06:18 62.1 °F 59.4 °F 30.12 in West 5.5 mph 9 mph 88% 0.00 in 58 W/m2
06:24 62.1 °F 59.4 °F 30.12 in WSW 3.9 mph 9 mph 88% 0.00 in 60 W/m2
06:29 62.2 °F 59.5 °F 30.12 in WSW 2.3 mph 6 mph 88% 0.00 in 77 W/m2
06:34 62.2 °F 59.5 °F 30.12 in WSW 3.1 mph 7 mph 88% 0.00 in 77 W/m2
06:39 62.2 °F 59.5 °F 30.12 in WSW 3.7 mph 9 mph 88% 0.00 in 63 W/m2
06:44 62.2 °F 59.5 °F 30.12 in West 5.9 mph 9 mph 88% 0.00 in 65 W/m2
06:49 62.2 °F 59.5 °F 30.12 in WSW 2.5 mph 9 mph 88% 0.00 in 81 W/m2
06:54 62.4 °F 59.7 °F 30.13 in West 3.8 mph 8 mph 88% 0.00 in 83 W/m2
06:59 62.4 °F 59.7 °F 30.13 in West 5.3 mph 9 mph 88% 0.00 in 74 W/m2
07:04 62.4 °F 59.7 °F 30.12 in West 3.6 mph 8 mph 88% 0.00 in 79 W/m2
07:09 62.4 °F 59.4 °F 30.13 in West 4.3 mph 8 mph 87% 0.00 in 88 W/m2
07:14 62.5 °F 59.5 °F 30.13 in West 2.1 mph 6 mph 87% 0.00 in 91 W/m2
07:19 62.6 °F 59.5 °F 30.13 in West 3.8 mph 7 mph 87% 0.00 in 77 W/m2
07:24 62.5 °F 59.5 °F 30.13 in West 4.1 mph 7 mph 87% 0.00 in 60 W/m2
07:29 62.4 °F 59.4 °F 30.13 in West 3.7 mph 9 mph 87% 0.00 in 46 W/m2
07:34 62.4 °F 59.4 °F 30.13 in WNW 7 mph 12 mph 87% 0.00 in 40 W/m2
07:39 62.3 °F 59.3 °F 30.13 in West 8.6 mph 12 mph 87% 0.00 in 39 W/m2
07:44 62.2 °F 59.2 °F 30.13 in West 6.6 mph 14 mph 87% 0.00 in 51 W/m2
07:49 62.1 °F 58.9 °F 30.14 in WNW 7.2 mph 13 mph 86.8% 0.00 in 58 W/m2
07:54 62 °F 58.9 °F 30.13 in West 6.2 mph 11 mph 87% 0.00 in 111 W/m2
07:59 62 °F 58.8 °F 30.13 in WNW 5.7 mph 10 mph 86.6% 0.00 in 100 W/m2
08:04 62.1 °F 58.6 °F 30.13 in West 4.9 mph 9 mph 86% 0.00 in 104 W/m2
08:09 62.1 °F 58.6 °F 30.13 in West 5 mph 11 mph 86% 0.00 in 100 W/m2
08:14 62.1 °F 58.7 °F 30.14 in West 5.3 mph 8 mph 86% 0.00 in 142 W/m2
08:19 62.3 °F 58.9 °F 30.14 in WSW 5.6 mph 10 mph 86% 0.00 in 172 W/m2
08:24 62.4 °F 58.8 °F 30.14 in West 5.8 mph 10 mph 85.2% 0.00 in 190 W/m2
08:29 62.8 °F 59 °F 30.14 in West 4.7 mph 11 mph 85% 0.00 in 204 W/m2
08:34 62.9 °F 58.9 °F 30.14 in West 4.8 mph 11 mph 84.2% 0.00 in 213 W/m2
08:39 63.1 °F 59.2 °F 30.14 in WSW 6 mph 8 mph 84% 0.00 in 206 W/m2
08:44 63.3 °F 59 °F 30.14 in West 7 mph 13 mph 83% 0.00 in 200 W/m2
08:49 63.4 °F 58.8 °F 30.14 in West 5.6 mph 11 mph 82.2% 0.00 in 155 W/m2
08:54 63.6 °F 58.9 °F 30.14 in WSW 4.7 mph 10 mph 82% 0.00 in 141 W/m2
08:59 63.6 °F 58.9 °F 30.14 in West 8 mph 12 mph 82% 0.00 in 167 W/m2
09:04 63.2 °F 58.6 °F 30.14 in WNW 6.6 mph 12 mph 82% 0.00 in 218 W/m2
09:09 63 °F 58.7 °F 30.14 in West 7 mph 13 mph 83% 0.00 in 199 W/m2
09:14 63 °F 58.6 °F 30.14 in West 7.8 mph 13 mph 83% 0.00 in 288 W/m2
09:19 62.9 °F 58.6 °F 30.15 in WNW 8 mph 13 mph 83% 0.00 in 251 W/m2
09:24 63 °F 59 °F 30.15 in West 7.2 mph 13 mph 84% 0.00 in 171 W/m2
09:29 62.8 °F 58.8 °F 30.15 in WNW 7.2 mph 15 mph 84.2% 0.00 in 218 W/m2
09:34 62.3 °F 58.7 °F 30.15 in WNW 6.6 mph 15 mph 85% 0.00 in 181 W/m2
09:39 61.8 °F 58.4 °F 30.16 in WNW 8.2 mph 13 mph 85.8% 0.00 in 221 W/m2
09:44 61.4 °F 58.3 °F 30.16 in WNW 8.4 mph 16 mph 86.8% 0.00 in 227 W/m2
09:49 61.2 °F 58.2 °F 30.15 in WNW 7.1 mph 14 mph 87.2% 0.00 in 271 W/m2
09:54 61.3 °F 58.6 °F 30.15 in West 6.4 mph 13 mph 88% 0.00 in 452 W/m2
09:59 61.7 °F 58.8 °F 30.15 in West 8.8 mph 15 mph 87.6% 0.00 in 455 W/m2
10:04 62.2 °F 59.2 °F 30.15 in West 5.9 mph 10 mph 87% 0.00 in 431 W/m2
10:09 62.7 °F 59.3 °F 30.15 in West 5.1 mph 11 mph 86% 0.00 in 522 W/m2
10:14 63.2 °F 59.5 °F 30.14 in West 6.4 mph 12 mph 85.2% 0.00 in 621 W/m2
10:19 63.7 °F 59.6 °F 30.14 in West 6.6 mph 12 mph 83.8% 0.00 in 494 W/m2
10:24 63.8 °F 59.4 °F 30.14 in WSW 6.5 mph 12 mph 83% 0.00 in 480 W/m2
10:29 64 °F 59.6 °F 30.14 in WSW 7.1 mph 12 mph 83% 0.00 in 417 W/m2
10:34 64.1 °F 59.5 °F 30.14 in WSW 7.4 mph 15 mph 82% 0.00 in 387 W/m2
10:39 64 °F 59 °F 30.14 in West 7.5 mph 15 mph 81% 0.00 in 381 W/m2
10:44 64.4 °F 59.4 °F 30.14 in WSW 5.6 mph 12 mph 81% 0.00 in 299 W/m2
10:49 64.5 °F 59.2 °F 30.14 in West 4.8 mph 12 mph 80.2% 0.00 in 292 W/m2
10:54 64.6 °F 59.3 °F 30.14 in West 6.2 mph 12 mph 80.4% 0.00 in 260 W/m2
10:59 64.5 °F 59.5 °F 30.14 in WNW 6.3 mph 10 mph 81% 0.00 in 378 W/m2
11:04 64.2 °F 59.2 °F 30.14 in WNW 7.2 mph 11 mph 81% 0.00 in 443 W/m2
11:09 64.4 °F 59.4 °F 30.14 in West 7.2 mph 14 mph 81% 0.00 in 446 W/m2
11:14 64.7 °F 59.4 °F 30.14 in West 6.6 mph 13 mph 80.2% 0.00 in 483 W/m2
11:19 64.8 °F 59.4 °F 30.14 in WNW 9.4 mph 15 mph 80% 0.00 in 443 W/m2
11:24 65 °F 59.5 °F 30.14 in West 5.3 mph 12 mph 79.8% 0.00 in 939 W/m2
11:29 65.6 °F 60 °F 30.14 in West 7.6 mph 12 mph 79.5% 0.00 in 436 W/m2
11:34 65.8 °F 59.6 °F 30.13 in WSW 8.3 mph 14 mph 78% 0.00 in 459 W/m2
11:39 66.2 °F 60.3 °F 30.13 in WSW 3.7 mph 12 mph 78.6% 0.00 in 715 W/m2
11:44 66.8 °F 60.4 °F 30.13 in West 7 mph 12 mph 77.2% 0.00 in 538 W/m2
11:49 66.6 °F 60.1 °F 30.12 in West 6.2 mph 11 mph 77% 0.00 in 438 W/m2
11:54 66.8 °F 60.5 °F 30.12 in WSW 4.8 mph 9 mph 77.8% 0.00 in 381 W/m2
11:59 67 °F 60.4 °F 30.12 in West 5.8 mph 11 mph 77% 0.00 in 299 W/m2
12:04 66.9 °F 60.4 °F 30.13 in WSW 4.3 mph 9 mph 77.4% 0.00 in 366 W/m2
12:09 67.4 °F 60.7 °F 30.13 in West 5.6 mph 12 mph 77% 0.00 in 636 W/m2
12:14 67.6 °F 60.6 °F 30.13 in WNW 7.6 mph 12 mph 76% 0.00 in 761 W/m2
12:19 68 °F 60.8 °F 30.13 in West 8.2 mph 13 mph 75.4% 0.00 in 619 W/m2
12:24 67.5 °F 60.5 °F 30.13 in WNW 6 mph 13 mph 76% 0.00 in 353 W/m2
12:29 66.9 °F 60.2 °F 30.13 in WNW 9.6 mph 15 mph 76.6% 0.00 in 795 W/m2
12:34 67.3 °F 60.7 °F 30.13 in WNW 7.4 mph 14 mph 77% 0.00 in 868 W/m2
12:39 67.8 °F 60.7 °F 30.13 in West 11.2 mph 19 mph 75.6% 0.00 in 918 W/m2
12:44 68.1 °F 60.5 °F 30.13 in West 10.7 mph 16 mph 74.4% 0.00 in 918 W/m2
12:49 68.5 °F 60.9 °F 30.13 in NW 9.3 mph 17 mph 74.3% 0.00 in 919 W/m2
12:54 68.2 °F 60.8 °F 30.13 in WNW 6.4 mph 18 mph 75.2% 0.00 in 847 W/m2
12:59 68.2 °F 61 °F 30.13 in WNW 10.1 mph 18 mph 75.6% 0.00 in 847 W/m2
13:04 67.6 °F 60.5 °F 30.13 in WNW 10.7 mph 17 mph 75.8% 0.00 in 835 W/m2
13:09 67.7 °F 60.7 °F 30.13 in NW 8.8 mph 15 mph 75.8% 0.00 in 854 W/m2
13:14 67.7 °F 60.6 °F 30.13 in West 9.6 mph 16 mph 75.6% 0.00 in 823 W/m2
13:19 67.7 °F 60.4 °F 30.13 in West 10.8 mph 17 mph 75.2% 0.00 in 860 W/m2
13:24 67.5 °F 60.2 °F 30.13 in WNW 10.9 mph 15 mph 75% 0.00 in 1023 W/m2
13:29 67.5 °F 60 °F 30.13 in WNW 9.2 mph 16 mph 74.8% 0.00 in 1023 W/m2
13:34 68.4 °F 60.5 °F 30.13 in West 8.4 mph 14 mph 73.6% 0.00 in 905 W/m2
13:39 68.5 °F 60.3 °F 30.13 in West 6.1 mph 14 mph 72.6% 0.00 in 923 W/m2
13:44 69.1 °F 60.8 °F 30.13 in West 8.5 mph 13 mph 72.6% 0.00 in 919 W/m2
13:48 68.9 °F 60.1 °F 30.13 in West 10.1 mph 14 mph 71.5% 0.00 in 896 W/m2
13:54 69 °F 60.2 °F 30.13 in WNW 9.2 mph 14 mph 71.4% 0.00 in 893 W/m2
13:59 68.5 °F 59.8 °F 30.13 in WNW 9.1 mph 13 mph 71.4% 0.00 in 1049 W/m2
14:04 69.1 °F 60.1 °F 30.13 in NW 8 mph 14 mph 71% 0.00 in 1049 W/m2
14:09 68.8 °F 59.7 °F 30.13 in WNW 7.4 mph 15 mph 70.8% 0.00 in 1028 W/m2
14:13 69.3 °F 60.2 °F 30.13 in WNW 5.5 mph 15 mph 70.8% 0.00 in 1007 W/m2
14:19 68.9 °F 59.9 °F 30.13 in WNW 7.2 mph 14 mph 71% 0.00 in 947 W/m2
14:24 68.9 °F 59.9 °F 30.13 in West 6.6 mph 13 mph 71% 0.00 in 926 W/m2
14:29 69.4 °F 60.2 °F 30.13 in WNW 10.4 mph 16 mph 70.4% 0.00 in 912 W/m2
14:34 69.3 °F 60.1 °F 30.13 in West 7.8 mph 13 mph 70.6% 0.00 in 425 W/m2
14:39 69.4 °F 60.5 °F 30.13 in West 8.6 mph 15 mph 71.2% 0.00 in 939 W/m2
14:44 70 °F 60.9 °F 30.13 in WNW 7.4 mph 15 mph 70.8% 0.00 in 988 W/m2
14:49 70 °F 60.6 °F 30.13 in West 10.2 mph 17 mph 70.2% 0.00 in 461 W/m2
14:54 69.9 °F 60.7 °F 30.13 in West 7.2 mph 12 mph 70.6% 0.00 in 937 W/m2
14:59 70.2 °F 61.2 °F 30.13 in WNW 5.6 mph 14 mph 71% 0.00 in 900 W/m2
15:04 70.1 °F 61.1 °F 30.13 in West 9.1 mph 16 mph 71% 0.00 in 1005 W/m2
15:08 70.2 °F 61 °F 30.13 in West 9.8 mph 16 mph 70.5% 0.00 in 1005 W/m2
15:14 69.8 °F 60.9 °F 30.13 in West 10.8 mph 15 mph 71.4% 0.00 in 418 W/m2
15:19 69.3 °F 60.7 °F 30.13 in WNW 10.3 mph 21 mph 72% 0.00 in 441 W/m2
15:24 69 °F 60.8 °F 30.13 in West 9 mph 15 mph 72.8% 0.00 in 606 W/m2
15:29 69.1 °F 61 °F 30.13 in WSW 9.4 mph 16 mph 73% 0.00 in 425 W/m2
15:34 69.1 °F 61.1 °F 30.13 in West 9.6 mph 15 mph 73.4% 0.00 in 752 W/m2
15:39 68.6 °F 61.1 °F 30.14 in West 7.3 mph 14 mph 74.4% 0.00 in 279 W/m2
15:44 68.6 °F 61.3 °F 30.14 in WNW 9.2 mph 13 mph 75% 0.00 in 406 W/m2
15:49 68.5 °F 61.4 °F 30.14 in WNW 5.7 mph 13 mph 75.6% 0.00 in 345 W/m2
15:54 68.3 °F 61.1 °F 30.14 in WNW 6.6 mph 15 mph 75.4% 0.00 in 381 W/m2
15:59 67.9 °F 61 °F 30.14 in WNW 6.6 mph 13 mph 76.4% 0.00 in 589 W/m2
16:04 68.3 °F 61.4 °F 30.14 in WNW 8.6 mph 15 mph 76.4% 0.00 in 506 W/m2
16:09 67.7 °F 60.8 °F 30.14 in WNW 9.1 mph 16 mph 76.4% 0.00 in 404 W/m2
16:14 67.3 °F 60.6 °F 30.14 in WNW 9.6 mph 15 mph 77% 0.00 in 420 W/m2
16:19 66.9 °F 60.4 °F 30.14 in WNW 8.8 mph 18 mph 77.2% 0.00 in 269 W/m2
16:24 66.7 °F 60.5 °F 30.14 in WNW 7.7 mph 15 mph 77.8% 0.00 in 308 W/m2
16:28 66.6 °F 60.2 °F 30.14 in West 12.6 mph 17 mph 77.3% 0.00 in 311 W/m2
16:34 66.5 °F 60 °F 30.14 in WNW 12 mph 19 mph 77% 0.00 in 281 W/m2
16:39 66.1 °F 59.8 °F 30.14 in WNW 6.9 mph 17 mph 77.4% 0.00 in 297 W/m2
16:44 66.1 °F 60 °F 30.14 in West 7.5 mph 13 mph 78% 0.00 in 302 W/m2
16:49 66.4 °F 60.3 °F 30.15 in NW 7.8 mph 18 mph 78% 0.00 in 287 W/m2
16:54 66 °F 59.7 °F 30.14 in WNW 11.7 mph 18 mph 77.6% 0.00 in 290 W/m2
16:59 65.7 °F 59.5 °F 30.15 in WNW 7.2 mph 17 mph 78% 0.00 in 276 W/m2
17:04 65.5 °F 59.4 °F 30.14 in WNW 5.7 mph 16 mph 78% 0.00 in 246 W/m2
17:09 65.3 °F 59.3 °F 30.14 in WNW 8.1 mph 14 mph 78.3% 0.00 in 227 W/m2
17:14 65.1 °F 59.4 °F 30.14 in West 4.5 mph 14 mph 79% 0.00 in 174 W/m2
17:19 65.2 °F 59.4 °F 30.14 in NW 6.2 mph 10 mph 79% 0.00 in 155 W/m2
17:24 65 °F 59.3 °F 30.14 in West 5.6 mph 12 mph 79% 0.00 in 174 W/m2
17:29 64.7 °F 59.1 °F 30.14 in WNW 8 mph 13 mph 79.4% 0.00 in 176 W/m2
17:34 64.6 °F 59.2 °F 30.14 in WNW 7.2 mph 16 mph 80% 0.00 in 172 W/m2
17:39 64.6 °F 59.2 °F 30.14 in WNW 9.3 mph 13 mph 80% 0.00 in 158 W/m2
17:44 64.6 °F 59.4 °F 30.14 in West 4.9 mph 13 mph 80.6% 0.00 in 142 W/m2
17:49 64.7 °F 59.6 °F 30.14 in West 7 mph 13 mph 81% 0.00 in 141 W/m2
17:54 64.2 °F 59.2 °F 30.15 in WNW 8.5 mph 16 mph 81% 0.00 in 160 W/m2
17:59 64 °F 59.2 °F 30.15 in WNW 8 mph 15 mph 81.4% 0.00 in 158 W/m2
18:04 64 °F 59.4 °F 30.15 in WNW 7 mph 13 mph 82% 0.00 in 141 W/m2
18:09 63.8 °F 59.1 °F 30.15 in West 7.8 mph 13 mph 82% 0.00 in 141 W/m2
18:14 63.7 °F 59 °F 30.15 in West 6.6 mph 12 mph 82% 0.00 in 163 W/m2
18:19 63.7 °F 59 °F 30.14 in WNW 6 mph 10 mph 82% 0.00 in 167 W/m2
18:24 63.8 °F 59.1 °F 30.14 in WNW 5.1 mph 9 mph 82% 0.00 in 146 W/m2
18:29 63.7 °F 59 °F 30.14 in WNW 5 mph 11 mph 82% 0.00 in 142 W/m2
18:34 63.7 °F 59 °F 30.14 in WNW 8.2 mph 11 mph 82% 0.00 in 114 W/m2
18:39 63.5 °F 58.8 °F 30.14 in WNW 5.3 mph 11 mph 82% 0.00 in 127 W/m2
18:44 63.5 °F 59.2 °F 30.14 in WNW 8.5 mph 11 mph 83% 0.00 in 153 W/m2
18:49 63.2 °F 58.9 °F 30.14 in WNW 7.6 mph 14 mph 83% 0.00 in 162 W/m2
18:54 63.1 °F 58.8 °F 30.14 in West 8 mph 12 mph 83% 0.00 in 158 W/m2
18:59 63 °F 58.7 °F 30.14 in WNW 6 mph 13 mph 83% 0.00 in 137 W/m2
19:04 62.8 °F 58.5 °F 30.14 in West 7.7 mph 12 mph 83% 0.00 in 97 W/m2
19:09 62.8 °F 58.5 °F 30.14 in West 5.2 mph 9 mph 83% 0.00 in 83 W/m2
19:14 62.8 °F 58.8 °F 30.14 in WSW 5.1 mph 9 mph 84% 0.00 in 79 W/m2
19:19 62.6 °F 58.7 °F 30.14 in West 6.9 mph 12 mph 84% 0.00 in 63 W/m2
19:24 62.3 °F 58.4 °F 30.14 in West 6.4 mph 10 mph 84% 0.00 in 69 W/m2
19:29 62.1 °F 58.2 °F 30.15 in WNW 8.4 mph 13 mph 84% 0.00 in 63 W/m2
19:34 62.1 °F 58.1 °F 30.15 in West 4 mph 11 mph 84% 0.00 in 49 W/m2
19:39 62.1 °F 58.2 °F 30.15 in WNW 7.1 mph 11 mph 84.2% 0.00 in 58 W/m2
19:44 62.1 °F 58.1 °F 30.15 in WNW 7.8 mph 10 mph 84% 0.00 in 58 W/m2
19:49 62.1 °F 58.1 °F 30.15 in WNW 5.2 mph 10 mph 84% 0.00 in 120 W/m2
19:54 62.2 °F 58.2 °F 30.15 in WNW 3.8 mph 6 mph 84% 0.00 in 86 W/m2
19:59 62.2 °F 58.3 °F 30.15 in WNW 8.4 mph 15 mph 84% 0.00 in 60 W/m2
20:04 62.2 °F 58.3 °F 30.15 in WNW 5.8 mph 13 mph 84% 0.00 in 60 W/m2
20:09 62.2 °F 58.2 °F 30.15 in WNW 6.1 mph 11 mph 84% 0.00 in 60 W/m2
20:14 62.1 °F 58.1 °F 30.15 in WNW 6.5 mph 11 mph 84% 0.00 in 42 W/m2
20:19 61.9 °F 57.9 °F 30.15 in West 6.2 mph 12 mph 84% 0.00 in 39 W/m2
20:24 61.9 °F 57.9 °F 30.15 in West 6.4 mph 11 mph 84% 0.00 in 30 W/m2
20:29 61.7 °F 58.1 °F 30.15 in WNW 9 mph 15 mph 85% 0.00 in 25 W/m2
20:34 61.5 °F 57.9 °F 30.16 in WNW 5.1 mph 13 mph 85% 0.00 in 14 W/m2
20:39 61.5 °F 57.9 °F 30.16 in WNW 6.3 mph 13 mph 85% 0.00 in 9 W/m2
20:44 61.5 °F 57.9 °F 30.16 in WNW 6.8 mph 12 mph 85% 0.00 in 0 W/m2
20:49 61.3 °F 57.7 °F 30.16 in WNW 5.6 mph 13 mph 85% 0.00 in 0 W/m2
20:54 61.2 °F 57.7 °F 30.15 in West 5.9 mph 12 mph 86% 0.00 in 0 W/m2
20:59 61.2 °F 57.7 °F 30.15 in West 6.5 mph 11 mph 86% 0.00 in 0 W/m2
21:04 61.2 °F 57.7 °F 30.16 in WNW 6.4 mph 12 mph 86% 0.00 in 0 W/m2
21:08 61 °F 57.6 °F 30.16 in WNW 5.5 mph 13 mph 86% 0.00 in 0 W/m2
21:14 60.8 °F 57.5 °F 30.16 in WNW 6.4 mph 16 mph 86% 0.00 in 0 W/m2
21:19 60.6 °F 57.4 °F 30.16 in WNW 5.2 mph 13 mph 86% 0.00 in 0 W/m2
21:24 60.4 °F 57.3 °F 30.16 in WNW 6.6 mph 13 mph 86.4% 0.00 in 0 W/m2
21:29 60.4 °F 57.4 °F 30.16 in WNW 4.4 mph 10 mph 86.8% 0.00 in 0 W/m2
21:34 60.3 °F 57.2 °F 30.16 in NW 5.8 mph 11 mph 87% 0.00 in 0 W/m2
21:39 60.2 °F 57.1 °F 30.16 in WNW 3.5 mph 11 mph 87% 0.00 in 0 W/m2
21:44 60.1 °F 57 °F 30.16 in WNW 4.5 mph 11 mph 87% 0.00 in 0 W/m2
21:49 60.1 °F 57 °F 30.16 in WNW 4.4 mph 8 mph 87% 0.00 in 0 W/m2
21:54 59.9 °F 56.8 °F 30.16 in West 6.6 mph 11 mph 87% 0.00 in 0 W/m2
21:59 59.8 °F 56.7 °F 30.17 in West 5.2 mph 11 mph 87% 0.00 in 0 W/m2
22:03 59.7 °F 56.7 °F 30.17 in WNW 5.7 mph 10 mph 87% 0.00 in 0 W/m2
22:09 59.7 °F 56.8 °F 30.17 in West 5 mph 9 mph 87.2% 0.00 in 0 W/m2
22:14 59.7 °F 57 °F 30.17 in West 3.2 mph 8 mph 88% 0.00 in 0 W/m2
22:19 59.7 °F 57 °F 30.17 in West 3.5 mph 6 mph 88% 0.00 in 0 W/m2
22:24 59.7 °F 57 °F 30.17 in West 3.7 mph 7 mph 88% 0.00 in 0 W/m2
22:29 59.7 °F 56.8 °F 30.17 in West 3.6 mph 7 mph 87.4% 0.00 in 0 W/m2
22:34 59.7 °F 56.7 °F 30.17 in West 5.6 mph 9 mph 87% 0.00 in 0 W/m2
22:39 59.5 °F 56.5 °F 30.17 in West 4.5 mph 11 mph 87% 0.00 in 0 W/m2
22:44 59.5 °F 56.5 °F 30.17 in WNW 6.2 mph 9 mph 87% 0.00 in 0 W/m2
22:49 59.5 °F 56.5 °F 30.17 in WNW 4.6 mph 9 mph 87% 0.00 in 0 W/m2
22:54 59.5 °F 56.5 °F 30.17 in West 5 mph 7 mph 87% 0.00 in 0 W/m2
22:59 59.5 °F 56.5 °F 30.17 in West 3.3 mph 8 mph 87% 0.00 in 0 W/m2
23:04 59.5 °F 56.5 °F 30.17 in West 4 mph 7 mph 87% 0.00 in 0 W/m2
23:09 59.4 °F 56.7 °F 30.17 in WNW 3.7 mph 10 mph 87.8% 0.00 in 0 W/m2
23:14 59.3 °F 56.6 °F 30.17 in WNW 5.2 mph 9 mph 88% 0.00 in 0 W/m2
23:19 59.2 °F 56.5 °F 30.17 in WNW 2.8 mph 10 mph 88% 0.00 in 0 W/m2
23:24 59 °F 56.3 °F 30.18 in WNW 4.7 mph 10 mph 88% 0.00 in 0 W/m2
23:29 58.8 °F 56.1 °F 30.18 in WNW 4 mph 8 mph 88% 0.00 in 0 W/m2
23:34 58.8 °F 56.1 °F 30.18 in WNW 2.4 mph 8 mph 88% 0.00 in 0 W/m2
23:39 58.8 °F 56 °F 30.18 in WNW 3.7 mph 7 mph 87.8% 0.00 in 0 W/m2
23:44 58.6 °F 55.6 °F 30.18 in West 3.5 mph 7 mph 87% 0.00 in 0 W/m2
23:49 58.6 °F 55.7 °F 30.18 in WNW 4.9 mph 10 mph 87.2% 0.00 in 0 W/m2
23:54 58.6 °F 55.8 °F 30.18 in WNW 3.6 mph 6 mph 87.8% 0.00 in 0 W/m2
23:59 58.6 °F 55.9 °F 30.18 in WNW 2 mph 6 mph 88% 0.00 in 0 W/m2
Bath Spa Weather
Compliments of Weather Underground - 2 mb